Time;durP1;ratioP1;P1;durP2;ratioP2;P2;SDS_P1;SDS_P2;PMS_P1;PMS_P2;Temp;Humidity;BMP_temperature;BMP_pressure;BME280_temperature;BME280_humidity;BME280_pressure;Samples;Min_cycle;Max_cycle;Signal;HPM_P1;HPM_P2
2023/11/04 00:00:14;;;;;;;0.75;0.50;;;9.20;1.00;;;;;;4997307;28;20442;-85
2023/11/04 00:06:23;;;;;;;0.70;0.65;;;11.10;1.00;;;;;;4992408;28;20931;-87
2023/11/04 00:09:20;;;;;;;1.00;0.50;;;11.00;1.00;;;;;;4993827;28;20406;-85
2023/11/04 00:12:24;;;;;;;1.10;0.50;;;9.20;1.00;;;;;;4966442;28;20401;-86
2023/11/04 00:18:59;;;;;;;0.80;0.60;;;8.80;1.00;;;;;;4954440;29;20485;-85
2023/11/04 00:24:57;;;;;;;0.70;0.50;;;9.70;1.00;;;;;;4954135;29;20401;-85
2023/11/04 00:27:57;;;;;;;1.30;0.50;;;10.50;1.00;;;;;;4941313;29;20481;-85
2023/11/04 00:30:22;;;;;;;0.60;0.40;;;9.10;1.00;;;;;;4968444;22;20438;-86
2023/11/04 00:32:48;;;;;;;0.93;0.57;;;9.30;1.00;;;;;;5038024;28;20386;-86
2023/11/04 00:35:14;;;;;;;0.50;0.40;;;9.30;1.00;;;;;;5036712;28;20392;-85
2023/11/04 00:37:40;;;;;;;1.60;0.50;;;9.30;1.00;;;;;;5052432;28;20396;-84
2023/11/04 00:40:08;;;;;;;1.10;0.50;;;9.30;1.00;;;;;;5052716;28;20389;-84
2023/11/04 00:42:33;;;;;;;2.42;0.70;;;9.40;1.00;;;;;;5054500;28;20401;-87
2023/11/04 00:44:59;;;;;;;1.23;0.50;;;9.40;1.00;;;;;;5038309;28;20403;-83
2023/11/04 00:47:24;;;;;;;1.00;0.40;;;9.50;1.00;;;;;;5035943;28;20402;-86
2023/11/04 00:49:50;;;;;;;1.10;0.40;;;9.40;1.00;;;;;;5036235;28;20517;-85
2023/11/04 00:52:15;;;;;;;0.68;0.50;;;9.40;1.00;;;;;;5047257;28;20404;-86
2023/11/04 00:54:41;;;;;;;0.60;0.40;;;9.40;1.00;;;;;;5053310;28;20469;-83
2023/11/04 00:57:07;;;;;;;0.90;0.47;;;9.40;1.00;;;;;;5043699;28;20399;-85
2023/11/04 00:59:32;;;;;;;1.00;0.50;;;9.40;1.00;;;;;;5036424;28;20394;-84
2023/11/04 01:01:58;;;;;;;1.30;0.40;;;9.40;1.00;;;;;;5045742;28;20945;-82
2023/11/04 01:04:23;;;;;;;0.50;0.30;;;9.40;1.00;;;;;;5018400;28;20409;-86
2023/11/04 01:06:49;;;;;;;1.20;0.50;;;9.30;1.00;;;;;;5037092;28;20514;-83
2023/11/04 01:09:15;;;;;;;0.70;0.40;;;9.40;1.00;;;;;;5034868;28;20419;-83
2023/11/04 01:11:44;;;;;;;0.90;0.40;;;9.40;1.00;;;;;;5045795;28;20393;-84
2023/11/04 01:14:09;;;;;;;0.80;0.40;;;9.30;1.00;;;;;;5048844;28;20390;-83
2023/11/04 01:16:35;;;;;;;0.90;0.60;;;9.30;1.00;;;;;;5039363;28;20391;-83
2023/11/04 01:19:01;;;;;;;1.00;0.50;;;9.40;1.00;;;;;;5047184;28;20407;-84
2023/11/04 01:21:26;;;;;;;0.90;0.40;;;9.40;1.00;;;;;;5043723;28;20847;-85
2023/11/04 01:23:53;;;;;;;0.60;0.40;;;9.30;1.00;;;;;;5051520;28;20389;-85
2023/11/04 01:26:19;;;;;;;0.60;0.40;;;9.30;1.00;;;;;;5056139;28;20834;-84
2023/11/04 01:28:44;;;;;;;1.20;0.57;;;9.40;1.00;;;;;;5042184;28;20402;-85
2023/11/04 01:31:10;;;;;;;0.70;0.40;;;9.30;1.00;;;;;;5038831;28;20518;-85
2023/11/04 01:33:35;;;;;;;1.00;0.40;;;9.20;1.00;;;;;;5043611;28;20417;-83
2023/11/04 01:36:01;;;;;;;0.87;0.40;;;9.30;1.00;;;;;;5042909;28;20946;-84
2023/11/04 01:38:26;;;;;;;0.50;0.40;;;9.30;1.00;;;;;;5034493;28;20448;-84
2023/11/04 01:40:54;;;;;;;0.50;0.30;;;9.40;1.00;;;;;;5031717;28;20387;-84
2023/11/04 01:43:27;;;;;;;0.70;0.40;;;9.30;1.00;;;;;;5032186;28;20465;-85
2023/11/04 01:46:17;;;;;;;1.23;0.40;;;9.30;1.00;;;;;;5035297;28;20525;-83
2023/11/04 01:48:44;;;;;;;1.30;0.40;;;9.30;1.00;;;;;;5036293;28;20380;-84
2023/11/04 01:51:11;;;;;;;1.20;0.30;;;9.30;1.00;;;;;;5033181;28;20923;-84
2023/11/04 01:53:39;;;;;;;0.70;0.50;;;9.30;1.00;;;;;;5031628;28;20826;-84
2023/11/04 01:56:07;;;;;;;0.80;0.35;;;10.50;1.00;;;;;;5035280;28;20482;-81
2023/11/04 01:58:34;;;;;;;0.50;0.40;;;9.30;1.00;;;;;;5033778;28;20398;-84
2023/11/04 02:01:00;;;;;;;1.02;0.40;;;9.30;1.00;;;;;;5036340;28;20403;-84
2023/11/04 02:03:27;;;;;;;1.40;0.30;;;9.30;1.00;;;;;;5032331;28;20395;-85
2023/11/04 02:05:53;;;;;;;1.40;0.40;;;9.40;1.00;;;;;;5038379;28;20511;-84
2023/11/04 02:08:19;;;;;;;0.50;0.30;;;9.40;1.00;;;;;;5034304;28;20435;-84
2023/11/04 02:10:45;;;;;;;1.13;0.40;;;9.40;1.00;;;;;;5038450;28;20402;-83
2023/11/04 02:13:11;;;;;;;0.83;0.70;;;9.40;1.00;;;;;;5051735;28;20467;-84
2023/11/04 02:15:36;;;;;;;1.80;0.40;;;9.40;1.00;;;;;;5052415;28;20386;-86
2023/11/04 02:18:03;;;;;;;0.70;0.37;;;9.40;1.00;;;;;;5031744;28;20391;-84
2023/11/04 02:20:32;;;;;;;0.50;0.40;;;9.20;1.00;;;;;;5033377;28;20502;-84
2023/11/04 02:22:58;;;;;;;0.80;0.40;;;9.20;1.00;;;;;;5037332;28;20917;-84
2023/11/04 02:25:23;;;;;;;1.00;0.47;;;9.20;1.00;;;;;;5039982;28;20401;-83
2023/11/04 02:27:49;;;;;;;0.50;0.40;;;9.20;1.00;;;;;;5052206;28;20940;-84
2023/11/04 02:30:14;;;;;;;0.70;0.30;;;9.20;1.00;;;;;;5052970;28;20774;-84
2023/11/04 02:32:40;;;;;;;0.40;0.30;;;9.10;1.00;;;;;;5053525;28;20393;-84
2023/11/04 02:35:06;;;;;;;1.10;0.30;;;9.20;1.00;;;;;;5044505;28;20386;-85
2023/11/04 02:37:32;;;;;;;1.40;0.40;;;9.20;1.00;;;;;;5041952;28;20399;-83
2023/11/04 02:39:58;;;;;;;0.60;0.30;;;9.30;1.00;;;;;;5032386;28;20831;-84
2023/11/04 02:42:23;;;;;;;1.20;0.30;;;9.30;1.00;;;;;;5043392;28;20439;-85
2023/11/04 02:44:49;;;;;;;0.60;0.30;;;9.30;1.00;;;;;;5041119;28;20415;-84
2023/11/04 02:47:14;;;;;;;0.60;0.40;;;9.20;1.00;;;;;;5033509;28;20468;-83
2023/11/04 02:49:40;;;;;;;0.53;0.40;;;9.30;1.00;;;;;;5035048;28;20582;-84
2023/11/04 02:52:06;;;;;;;1.10;0.30;;;9.40;1.00;;;;;;5040990;28;20387;-83
2023/11/04 02:54:31;;;;;;;0.50;0.40;;;9.40;1.00;;;;;;5046872;28;20474;-85
2023/11/04 02:56:57;;;;;;;1.30;0.40;;;9.40;1.00;;;;;;5058586;28;20397;-84
2023/11/04 02:59:22;;;;;;;0.50;0.40;;;9.40;1.00;;;;;;5054328;28;20410;-81
2023/11/04 03:01:48;;;;;;;0.50;0.40;;;9.40;1.00;;;;;;5055393;28;20923;-82
2023/11/04 03:04:13;;;;;;;0.57;0.30;;;9.40;1.00;;;;;;5053040;28;20453;-84
2023/11/04 03:06:39;;;;;;;0.50;0.40;;;9.40;1.00;;;;;;5036345;28;20419;-85
2023/11/04 03:09:06;;;;;;;1.30;0.40;;;9.50;1.00;;;;;;5044146;28;20450;-85
2023/11/04 03:11:31;;;;;;;0.70;0.38;;;9.40;1.00;;;;;;5052478;28;20407;-85
2023/11/04 03:13:57;;;;;;;0.93;0.40;;;9.50;1.00;;;;;;5038461;28;20387;-85
2023/11/04 03:16:22;;;;;;;0.60;0.40;;;9.40;1.00;;;;;;5047776;28;20495;-82
2023/11/04 03:18:48;;;;;;;1.08;0.30;;;9.40;1.00;;;;;;5054523;28;20401;-85
2023/11/04 03:21:15;;;;;;;1.40;0.40;;;9.40;1.00;;;;;;5073441;28;20370;-83
2023/11/04 03:23:41;;;;;;;0.50;0.40;;;9.50;1.00;;;;;;5075931;28;20427;-85
2023/11/04 03:26:10;;;;;;;1.30;0.40;;;9.40;1.00;;;;;;5058844;28;20470;-82
2023/11/04 03:28:36;;;;;;;1.60;0.30;;;9.40;1.00;;;;;;5061420;28;20399;-84
2023/11/04 03:31:05;;;;;;;0.60;0.37;;;9.40;1.00;;;;;;5054430;28;20461;-84
2023/11/04 03:33:31;;;;;;;0.80;0.40;;;9.40;1.00;;;;;;5070814;28;20412;-83
2023/11/04 03:35:58;;;;;;;0.50;0.30;;;9.40;1.00;;;;;;5062558;28;20916;-85
2023/11/04 03:38:23;;;;;;;1.40;0.40;;;9.40;1.00;;;;;;5050245;28;20403;-86
2023/11/04 03:40:49;;;;;;;1.23;0.30;;;9.30;1.00;;;;;;5048626;28;20387;-84
2023/11/04 03:43:14;;;;;;;0.60;0.40;;;9.40;1.00;;;;;;5040432;28;20398;-83
2023/11/04 03:45:40;;;;;;;1.20;0.40;;;9.30;1.00;;;;;;5036807;28;20950;-86
2023/11/04 03:48:06;;;;;;;0.80;0.40;;;9.40;1.00;;;;;;5036326;28;20899;-84
2023/11/04 03:50:31;;;;;;;1.43;0.47;;;9.40;1.00;;;;;;5039020;28;20433;-84
2023/11/04 03:52:57;;;;;;;1.30;0.40;;;9.40;1.00;;;;;;5034585;28;20398;-83
2023/11/04 03:55:22;;;;;;;1.00;0.40;;;9.50;1.00;;;;;;5033340;28;20903;-84
2023/11/04 03:57:48;;;;;;;0.60;0.50;;;9.40;1.00;;;;;;5035663;28;20394;-84
2023/11/04 04:00:14;;;;;;;0.68;0.30;;;9.40;1.00;;;;;;5050007;28;20397;-84
2023/11/04 04:02:40;;;;;;;0.70;0.40;;;9.40;1.00;;;;;;5056694;28;20902;-85
2023/11/04 04:05:06;;;;;;;0.63;0.38;;;9.50;1.00;;;;;;5056268;28;20397;-85
2023/11/04 04:07:32;;;;;;;1.00;0.60;;;9.50;1.00;;;;;;5071760;28;20420;-83
2023/11/04 04:09:58;;;;;;;1.00;0.30;;;9.40;1.00;;;;;;5075318;28;20386;-84
2023/11/04 04:12:23;;;;;;;0.73;0.30;;;9.20;1.00;;;;;;5053799;28;20419;-84
2023/11/04 04:14:49;;;;;;;0.80;0.30;;;9.20;1.00;;;;;;5051249;28;20381;-84
2023/11/04 04:17:14;;;;;;;1.90;0.40;;;9.20;1.00;;;;;;5053879;28;20449;-85
2023/11/04 04:19:40;;;;;;;0.60;0.40;;;9.20;1.00;;;;;;5054013;28;20386;-84
2023/11/04 04:22:06;;;;;;;1.40;0.50;;;9.30;1.00;;;;;;5057542;28;20385;-83
2023/11/04 04:24:32;;;;;;;1.30;0.50;;;9.30;1.00;;;;;;5056737;28;20404;-84
2023/11/04 04:26:57;;;;;;;2.00;0.50;;;9.40;1.00;;;;;;5058527;28;20988;-84
2023/11/04 04:29:23;;;;;;;0.90;0.40;;;9.40;1.00;;;;;;5045211;28;20486;-85
2023/11/04 04:31:51;;;;;;;1.10;0.40;;;9.50;1.00;;;;;;5046174;28;20967;-83
2023/11/04 04:34:17;;;;;;;0.82;0.35;;;9.20;1.00;;;;;;5046621;28;20401;-85
2023/11/04 04:36:45;;;;;;;0.60;0.40;;;9.50;1.00;;;;;;5034668;28;20467;-85
2023/11/04 04:39:11;;;;;;;1.10;0.52;;;9.60;1.00;;;;;;5040769;28;20409;-84
2023/11/04 04:41:36;;;;;;;0.90;0.40;;;9.60;1.00;;;;;;5034350;28;20474;-85
2023/11/04 04:44:02;;;;;;;0.70;0.30;;;9.60;1.00;;;;;;5058323;28;20402;-83
2023/11/04 04:46:29;;;;;;;0.73;0.50;;;9.60;1.00;;;;;;5069512;28;20409;-82
2023/11/04 04:48:55;;;;;;;0.70;0.50;;;9.70;1.00;;;;;;5068616;28;20389;-83
2023/11/04 04:51:21;;;;;;;1.33;0.50;;;9.80;1.00;;;;;;5077883;28;20373;-81
2023/11/04 04:53:47;;;;;;;0.73;0.40;;;9.80;1.00;;;;;;5077607;28;20389;-82
2023/11/04 04:56:14;;;;;;;0.97;0.53;;;9.80;1.00;;;;;;5078103;28;20437;-82
2023/11/04 04:58:41;;;;;;;1.48;0.32;;;9.90;1.00;;;;;;5065459;28;20386;-82
2023/11/04 05:01:17;;;;;;;1.00;0.40;;;9.90;1.00;;;;;;5072088;28;20469;-83
2023/11/04 05:03:42;;;;;;;1.00;0.30;;;9.90;1.00;;;;;;5077354;28;20396;-84
2023/11/04 05:06:08;;;;;;;0.70;0.40;;;9.90;1.00;;;;;;5072972;28;20905;-86
2023/11/04 05:08:33;;;;;;;1.45;0.40;;;9.80;1.00;;;;;;5053075;28;20480;-86
2023/11/04 05:10:59;;;;;;;0.90;0.30;;;9.80;1.00;;;;;;5036390;28;20395;-86
2023/11/04 05:13:24;;;;;;;0.70;0.30;;;9.90;1.00;;;;;;5032934;28;20403;-83
2023/11/04 05:15:50;;;;;;;1.43;0.60;;;10.00;1.00;;;;;;5034649;28;20391;-86
2023/11/04 05:18:17;;;;;;;0.82;0.40;;;10.00;1.00;;;;;;5046778;28;20404;-85
2023/11/04 05:20:43;;;;;;;1.00;0.50;;;10.00;1.00;;;;;;5053924;28;20391;-83
2023/11/04 05:23:08;;;;;;;1.00;0.40;;;10.60;1.00;;;;;;5056389;28;20467;-84
2023/11/04 05:25:34;;;;;;;1.17;0.70;;;10.00;1.00;;;;;;5056511;28;20419;-83
2023/11/04 05:27:59;;;;;;;1.20;0.40;;;10.10;1.00;;;;;;5071442;28;20385;-85
2023/11/04 05:30:25;;;;;;;1.00;0.40;;;10.10;1.00;;;;;;5050777;28;20390;-85
2023/11/04 05:32:51;;;;;;;0.60;0.40;;;9.90;1.00;;;;;;5050510;28;20808;-84
2023/11/04 05:35:17;;;;;;;1.02;0.40;;;9.80;1.00;;;;;;5045244;28;20382;-84
2023/11/04 05:37:43;;;;;;;1.13;0.30;;;9.70;1.00;;;;;;5056292;28;20471;-84
2023/11/04 05:40:09;;;;;;;1.30;0.40;;;9.50;1.00;;;;;;5069608;28;20387;-82
2023/11/04 05:42:35;;;;;;;0.90;0.40;;;9.50;1.00;;;;;;5033572;28;20400;-85
2023/11/04 05:45:01;;;;;;;1.00;0.50;;;9.40;1.00;;;;;;5031236;28;20410;-85
2023/11/04 05:47:26;;;;;;;1.90;0.40;;;9.20;1.00;;;;;;5032338;28;20414;-86
2023/11/04 05:49:52;;;;;;;2.20;0.40;;;9.20;1.00;;;;;;5030848;28;20406;-86
2023/11/04 05:52:17;;;;;;;0.70;0.40;;;9.40;1.00;;;;;;5031386;28;20430;-86
2023/11/04 05:54:43;;;;;;;1.00;0.40;;;9.20;1.00;;;;;;5030837;28;20456;-86
2023/11/04 05:57:09;;;;;;;0.63;0.40;;;9.30;1.00;;;;;;5031838;28;20764;-87
2023/11/04 05:59:35;;;;;;;0.80;0.55;;;9.30;1.00;;;;;;5032426;28;20394;-85
2023/11/04 06:02:01;;;;;;;0.93;0.40;;;9.10;1.00;;;;;;5031900;28;20414;-86
2023/11/04 06:04:26;;;;;;;0.50;0.30;;;9.10;1.00;;;;;;5033569;28;20402;-86
2023/11/04 06:06:52;;;;;;;0.90;0.50;;;9.20;1.00;;;;;;5030750;28;20407;-86
2023/11/04 06:09:17;;;;;;;1.37;0.40;;;9.50;1.00;;;;;;5034598;28;20479;-85
2023/11/04 06:11:43;;;;;;;0.40;0.30;;;9.50;1.00;;;;;;5049919;28;20408;-86
2023/11/04 06:14:09;;;;;;;0.60;0.30;;;9.40;1.00;;;;;;5052182;28;20381;-87
2023/11/04 06:16:35;;;;;;;1.20;0.60;;;9.40;1.00;;;;;;5042676;28;20409;-87
2023/11/04 06:19:00;;;;;;;0.90;0.40;;;9.40;1.00;;;;;;5031709;28;20395;-84
2023/11/04 06:21:26;;;;;;;1.03;0.50;;;9.40;1.00;;;;;;5030596;28;20402;-85
2023/11/04 06:23:52;;;;;;;0.80;0.30;;;9.40;1.00;;;;;;5035158;28;20441;-85
2023/11/04 06:26:22;;;;;;;0.90;0.30;;;9.50;1.00;;;;;;5062204;28;20474;-85
2023/11/04 06:28:47;;;;;;;0.80;0.50;;;9.80;1.00;;;;;;5040233;28;20413;-86
2023/11/04 06:31:13;;;;;;;0.67;0.30;;;10.00;1.00;;;;;;5037007;28;21048;-84
2023/11/04 06:33:38;;;;;;;0.50;0.30;;;10.10;1.00;;;;;;5035749;28;20390;-84
2023/11/04 06:36:05;;;;;;;2.40;0.40;;;10.30;1.00;;;;;;5034235;28;20475;-85
2023/11/04 06:38:30;;;;;;;0.50;0.30;;;10.30;1.00;;;;;;5036103;28;20474;-85
2023/11/04 06:40:56;;;;;;;1.70;0.30;;;10.30;1.00;;;;;;5034609;28;20915;-85
2023/11/04 06:43:22;;;;;;;0.60;0.30;;;10.30;1.00;;;;;;5034685;28;20478;-85
2023/11/04 06:45:47;;;;;;;0.65;0.40;;;10.40;1.00;;;;;;5042650;28;20442;-86
2023/11/04 06:48:13;;;;;;;0.50;0.30;;;10.30;1.00;;;;;;5040262;28;20415;-85
2023/11/04 06:50:38;;;;;;;0.40;0.30;;;10.30;1.00;;;;;;5037774;28;20387;-85
2023/11/04 06:53:04;;;;;;;0.70;0.30;;;10.40;1.00;;;;;;5049817;28;20394;-86
2023/11/04 06:55:32;;;;;;;0.67;0.30;;;10.40;1.00;;;;;;5037606;28;20383;-85
2023/11/04 06:57:58;;;;;;;0.70;0.40;;;10.40;1.00;;;;;;5055133;28;20382;-84
2023/11/04 07:00:24;;;;;;;0.73;0.50;;;10.30;1.00;;;;;;5058767;28;20403;-85
2023/11/04 07:02:49;;;;;;;2.30;0.60;;;10.20;1.00;;;;;;5073746;28;20495;-84
2023/11/04 07:05:15;;;;;;;0.93;0.47;;;10.10;1.00;;;;;;5066068;28;20389;-86
2023/11/04 07:07:41;;;;;;;0.60;0.40;;;10.00;1.00;;;;;;5056213;28;20389;-85
2023/11/04 07:10:09;;;;;;;0.80;0.40;;;10.10;1.00;;;;;;5056237;28;20393;-86
2023/11/04 07:12:35;;;;;;;1.30;0.40;;;10.10;1.00;;;;;;5054728;28;20397;-85
2023/11/04 07:15:03;;;;;;;1.40;0.60;;;9.90;1.00;;;;;;5055802;28;20389;-84
2023/11/04 07:17:30;;;;;;;0.85;0.50;;;9.80;1.00;;;;;;5034585;28;20489;-85
2023/11/04 07:19:57;;;;;;;1.30;0.70;;;9.90;1.00;;;;;;5034868;28;20386;-86
2023/11/04 07:22:23;;;;;;;1.20;0.60;;;9.80;1.00;;;;;;5035652;28;20383;-85
2023/11/04 07:24:48;;;;;;;0.40;0.30;;;10.00;1.00;;;;;;5033800;28;20454;-86
2023/11/04 07:27:14;;;;;;;0.63;0.40;;;10.20;1.00;;;;;;5035553;28;20407;-85
2023/11/04 07:29:40;;;;;;;0.70;0.40;;;10.30;1.00;;;;;;5036895;28;20383;-85
2023/11/04 07:32:06;;;;;;;0.80;0.40;;;10.20;1.00;;;;;;5056472;28;20389;-85
2023/11/04 07:34:33;;;;;;;0.60;0.40;;;10.20;1.00;;;;;;5048552;28;20380;-85
2023/11/04 07:37:00;;;;;;;1.70;0.57;;;10.10;1.00;;;;;;5035263;28;20386;-85
2023/11/04 07:39:27;;;;;;;1.63;0.70;;;10.10;1.00;;;;;;5033567;28;20898;-85
2023/11/04 07:41:53;;;;;;;1.83;0.80;;;10.00;1.00;;;;;;5033899;28;20403;-85
2023/11/04 07:44:19;;;;;;;1.40;0.50;;;10.20;1.00;;;;;;5034059;28;20406;-84
2023/11/04 07:46:44;;;;;;;0.70;0.40;;;10.10;1.00;;;;;;5034520;28;20403;-84
2023/11/04 07:49:10;;;;;;;0.83;0.50;;;10.20;1.00;;;;;;5036769;28;20398;-85
2023/11/04 07:51:36;;;;;;;1.15;0.43;;;10.20;1.00;;;;;;5035638;28;20911;-84
2023/11/04 07:54:01;;;;;;;0.75;0.50;;;10.20;1.00;;;;;;5035774;28;20473;-85
2023/11/04 07:56:27;;;;;;;0.63;0.50;;;10.40;1.00;;;;;;5035689;28;20426;-85
2023/11/04 07:58:53;;;;;;;0.50;0.40;;;10.50;1.00;;;;;;5041703;28;20889;-85
2023/11/04 08:01:19;;;;;;;0.60;0.40;;;10.60;1.00;;;;;;5044095;28;20930;-86
2023/11/04 08:03:45;;;;;;;0.57;0.40;;;10.60;1.00;;;;;;5034431;28;20399;-85
2023/11/04 08:06:12;;;;;;;0.60;0.50;;;10.80;1.00;;;;;;5034639;28;20514;-86
2023/11/04 08:08:37;;;;;;;0.60;0.50;;;10.70;1.00;;;;;;5034994;28;20387;-85
2023/11/04 08:11:03;;;;;;;0.65;0.40;;;10.80;1.00;;;;;;5038816;28;20470;-85
2023/11/04 08:13:29;;;;;;;1.38;0.40;;;10.80;1.00;;;;;;5046563;28;20398;-86
2023/11/04 08:15:54;;;;;;;0.60;0.40;;;10.80;1.00;;;;;;5047668;28;20478;-86
2023/11/04 08:18:30;;;;;;;1.20;0.57;;;10.80;1.00;;;;;;5037533;28;20391;-85
2023/11/04 08:20:57;;;;;;;1.20;0.60;;;10.80;1.00;;;;;;5040072;28;20891;-86
2023/11/04 08:23:22;;;;;;;0.50;0.30;;;10.50;1.00;;;;;;5037907;28;20390;-86
2023/11/04 08:25:48;;;;;;;0.53;0.40;;;10.30;1.00;;;;;;5035780;28;20415;-85
2023/11/04 08:28:14;;;;;;;0.70;0.40;;;10.40;1.00;;;;;;5034749;28;20401;-86
2023/11/04 08:30:43;;;;;;;0.60;0.40;;;10.80;1.00;;;;;;5034950;28;20409;-85
2023/11/04 08:33:08;;;;;;;0.83;0.40;;;11.20;1.00;;;;;;5047278;28;20394;-86
2023/11/04 08:35:34;;;;;;;1.50;0.63;;;10.70;1.00;;;;;;5039581;28;20383;-85
2023/11/04 08:37:59;;;;;;;1.40;0.65;;;10.30;1.00;;;;;;5038420;28;20779;-85
2023/11/04 08:40:25;;;;;;;1.70;0.35;;;10.90;1.00;;;;;;5049031;28;20487;-86
2023/11/04 08:42:52;;;;;;;1.00;0.50;;;13.80;1.00;;;;;;5037291;28;20482;-85
2023/11/04 08:45:18;;;;;;;0.80;0.30;;;10.60;1.00;;;;;;5035790;28;20481;-84
2023/11/04 08:47:44;;;;;;;0.52;0.40;;;10.10;1.00;;;;;;5035707;28;20834;-85
2023/11/04 08:50:10;;;;;;;0.60;0.40;;;10.80;1.00;;;;;;5033656;28;20405;-85
2023/11/04 08:52:38;;;;;;;1.30;0.40;;;12.00;1.00;;;;;;5050775;28;20426;-84
2023/11/04 08:55:05;;;;;;;0.90;0.40;;;10.30;1.00;;;;;;5059091;28;20373;-85
2023/11/04 08:57:32;;;;;;;1.00;0.60;;;10.30;1.00;;;;;;5057031;28;20393;-85
2023/11/04 08:59:58;;;;;;;0.70;0.60;;;10.90;1.00;;;;;;5054291;28;20449;-85
2023/11/04 09:02:24;;;;;;;1.13;0.60;;;12.10;1.00;;;;;;5044731;28;20408;-85
2023/11/04 09:04:49;;;;;;;1.10;0.60;;;10.80;1.00;;;;;;5054104;28;20835;-86
2023/11/04 09:07:18;;;;;;;0.70;0.60;;;10.70;1.00;;;;;;5055068;28;20777;-84
2023/11/04 09:09:43;;;;;;;0.95;0.60;;;10.20;1.00;;;;;;5056388;28;20402;-83
2023/11/04 09:12:09;;;;;;;0.88;0.50;;;10.50;1.00;;;;;;5055764;28;20391;-84
2023/11/04 09:14:36;;;;;;;1.00;0.70;;;10.70;1.00;;;;;;5054959;28;20414;-83
2023/11/04 09:17:01;;;;;;;1.30;0.70;;;10.00;1.00;;;;;;5055774;28;20387;-83
2023/11/04 09:19:27;;;;;;;0.70;0.50;;;12.90;1.00;;;;;;5051819;28;20485;-85
2023/11/04 09:21:52;;;;;;;0.90;0.67;;;10.40;1.00;;;;;;5038934;28;20406;-84
2023/11/04 09:24:19;;;;;;;0.82;0.68;;;10.00;1.00;;;;;;5045732;28;20392;-84
2023/11/04 09:26:45;;;;;;;1.60;0.60;;;10.90;1.00;;;;;;5057138;28;20405;-85
2023/11/04 09:29:11;;;;;;;1.30;0.77;;;10.40;1.00;;;;;;5051957;28;20435;-84
2023/11/04 09:31:37;;;;;;;1.60;1.00;;;10.50;1.00;;;;;;5036939;28;20396;-85
2023/11/04 09:34:04;;;;;;;0.90;0.80;;;10.50;1.00;;;;;;5035690;28;20397;-86
2023/11/04 09:36:30;;;;;;;1.30;0.60;;;10.50;1.00;;;;;;5042267;28;20557;-85
2023/11/04 09:38:56;;;;;;;1.45;0.57;;;10.90;1.00;;;;;;5042909;28;20403;-85
2023/11/04 09:41:22;;;;;;;1.30;0.60;;;10.80;1.00;;;;;;5034213;28;20391;-85
2023/11/04 09:43:48;;;;;;;0.80;0.60;;;10.40;1.00;;;;;;5034592;28;20387;-85
2023/11/04 09:46:14;;;;;;;2.50;0.63;;;10.30;1.00;;;;;;5033803;28;20502;-85
2023/11/04 09:48:40;;;;;;;1.00;0.60;;;10.30;1.00;;;;;;5032794;28;20394;-85
2023/11/04 09:51:11;;;;;;;0.60;0.50;;;10.30;1.00;;;;;;5031864;28;20395;-85
2023/11/04 09:53:38;;;;;;;0.70;0.50;;;10.70;1.00;;;;;;5044678;28;20761;-86
2023/11/04 09:56:06;;;;;;;1.02;0.50;;;10.80;1.00;;;;;;5052880;28;20394;-85
2023/11/04 09:58:32;;;;;;;0.60;0.50;;;11.30;1.00;;;;;;5059197;28;20389;-85
2023/11/04 10:00:58;;;;;;;0.70;0.30;;;12.60;1.00;;;;;;5061373;28;20485;-85
2023/11/04 10:03:24;;;;;;;0.65;0.40;;;13.30;1.00;;;;;;5059420;28;20416;-83
2023/11/04 10:05:50;;;;;;;0.40;0.28;;;12.90;1.00;;;;;;5050448;28;20421;-84
2023/11/04 10:08:15;;;;;;;0.43;0.30;;;11.10;1.00;;;;;;5045567;28;20449;-85
2023/11/04 10:10:41;;;;;;;0.52;0.30;;;11.20;1.00;;;;;;5037518;28;20418;-84
2023/11/04 10:13:07;;;;;;;0.57;0.40;;;11.10;1.00;;;;;;5038143;28;20376;-82
2023/11/04 10:15:33;;;;;;;0.50;0.30;;;11.10;1.00;;;;;;5038370;28;20977;-84
2023/11/04 10:18:00;;;;;;;0.50;0.30;;;11.20;1.00;;;;;;5053474;28;20437;-83
2023/11/04 10:20:26;;;;;;;0.90;0.40;;;12.60;1.00;;;;;;5035786;28;20391;-85
2023/11/04 10:22:53;;;;;;;1.40;0.40;;;10.80;1.00;;;;;;5037244;28;20597;-85
2023/11/04 10:25:19;;;;;;;0.70;0.30;;;11.00;1.00;;;;;;5038899;28;20931;-83
2023/11/04 10:27:45;;;;;;;0.50;0.40;;;10.90;1.00;;;;;;5054140;28;20882;-84
2023/11/04 10:30:11;;;;;;;0.60;0.40;;;10.60;1.00;;;;;;5056468;28;20388;-85
2023/11/04 10:32:38;;;;;;;0.50;0.40;;;11.00;1.00;;;;;;5052889;28;20399;-83
2023/11/04 10:35:12;;;;;;;0.50;0.40;;;10.90;1.00;;;;;;5039696;28;20399;-84
2023/11/04 10:37:39;;;;;;;0.98;0.65;;;11.10;1.00;;;;;;5039681;28;20387;-83
2023/11/04 10:40:05;;;;;;;0.60;0.60;;;11.00;1.00;;;;;;5043048;28;20395;-83
2023/11/04 10:42:36;;;;;;;0.57;0.40;;;11.00;1.00;;;;;;5044873;28;20387;-85
2023/11/04 10:45:11;;;;;;;1.40;0.50;;;10.90;1.00;;;;;;5040306;28;20406;-86
2023/11/04 10:47:47;;;;;;;0.82;0.40;;;11.00;1.00;;;;;;5033321;28;20461;-86
2023/11/04 10:50:15;;;;;;;0.50;0.30;;;12.70;1.00;;;;;;5046135;28;20878;-85
2023/11/04 10:52:48;;;;;;;0.63;0.40;;;11.00;1.00;;;;;;5050793;28;20383;-86
2023/11/04 10:55:17;;;;;;;0.50;0.40;;;10.20;1.00;;;;;;5039366;28;20395;-85
2023/11/04 10:57:47;;;;;;;0.60;0.47;;;10.90;1.00;;;;;;5044141;28;20399;-86
2023/11/04 11:00:19;;;;;;;0.60;0.40;;;10.90;1.00;;;;;;5032971;28;20938;-84
2023/11/04 11:02:46;;;;;;;0.90;0.50;;;10.60;1.00;;;;;;5036697;28;20478;-82
2023/11/04 11:05:13;;;;;;;0.80;0.50;;;11.10;1.00;;;;;;5029357;28;20418;-81
2023/11/04 11:07:45;;;;;;;1.00;0.60;;;11.10;1.00;;;;;;5030848;28;20411;-81
2023/11/04 11:10:14;;;;;;;1.10;0.40;;;11.00;1.00;;;;;;5036423;28;20407;-82
2023/11/04 11:12:50;;;;;;;0.60;0.50;;;10.80;1.00;;;;;;5042248;28;20423;-85
2023/11/04 11:15:16;;;;;;;0.60;0.30;;;10.90;1.00;;;;;;5052577;28;20484;-83
2023/11/04 11:17:42;;;;;;;0.60;0.40;;;10.80;1.00;;;;;;5058703;28;20402;-83
2023/11/04 11:20:27;;;;;;;0.70;0.50;;;10.80;1.00;;;;;;5054864;28;20445;-82
2023/11/04 11:23:01;;;;;;;0.70;0.40;;;10.70;1.00;;;;;;5055510;28;20391;-82
2023/11/04 11:25:31;;;;;;;0.80;0.50;;;10.80;1.00;;;;;;5052507;28;20448;-80
2023/11/04 11:27:59;;;;;;;0.60;0.40;;;10.50;1.00;;;;;;5053837;28;20397;-83
2023/11/04 11:30:36;;;;;;;1.30;0.40;;;10.40;1.00;;;;;;5045671;28;20395;-83
2023/11/04 11:33:08;;;;;;;0.50;0.40;;;10.50;1.00;;;;;;5046109;28;20411;-82
2023/11/04 11:35:54;;;;;;;1.60;0.40;;;10.10;1.00;;;;;;5049483;28;20450;-82
2023/11/04 11:38:20;;;;;;;0.50;0.30;;;11.00;1.00;;;;;;5042695;28;20429;-80
2023/11/04 11:40:46;;;;;;;0.50;0.30;;;11.00;1.00;;;;;;5041958;28;20465;-84
2023/11/04 11:43:12;;;;;;;0.60;0.30;;;11.50;1.00;;;;;;5038070;28;20474;-84
2023/11/04 11:45:39;;;;;;;0.50;0.30;;;11.30;1.00;;;;;;5040119;28;20435;-85
2023/11/04 11:48:05;;;;;;;1.00;0.40;;;10.90;1.00;;;;;;5029611;28;20400;-84
2023/11/04 11:50:30;;;;;;;0.47;0.40;;;11.50;1.00;;;;;;5043273;28;20395;-83
2023/11/04 11:52:57;;;;;;;0.60;0.40;;;11.30;1.00;;;;;;5052249;28;20928;-84
2023/11/04 11:55:23;;;;;;;0.50;0.40;;;11.50;1.00;;;;;;5029629;28;20406;-84
2023/11/04 11:57:51;;;;;;;0.80;0.40;;;11.50;1.00;;;;;;5041783;28;20387;-84
2023/11/04 12:00:16;;;;;;;0.60;0.50;;;11.10;1.00;;;;;;5042914;28;20406;-83
2023/11/04 12:02:42;;;;;;;0.70;0.30;;;11.50;1.00;;;;;;5047936;28;20419;-83
2023/11/04 12:05:09;;;;;;;0.50;0.30;;;11.10;1.00;;;;;;5049720;28;20411;-82
2023/11/04 12:07:35;;;;;;;0.85;0.70;;;11.40;1.00;;;;;;5060417;28;20393;-83
2023/11/04 12:10:00;;;;;;;0.60;0.40;;;10.70;1.00;;;;;;5068417;28;20409;-84
2023/11/04 12:12:26;;;;;;;0.70;0.40;;;11.20;1.00;;;;;;5029089;28;20420;-83
2023/11/04 12:15:02;;;;;;;0.63;0.50;;;10.80;1.00;;;;;;5037870;28;20415;-85
2023/11/04 12:17:27;;;;;;;1.27;0.40;;;11.10;1.00;;;;;;5024266;28;20884;-84
2023/11/04 12:19:53;;;;;;;1.30;0.50;;;10.90;1.00;;;;;;5032644;28;20447;-81
2023/11/04 12:22:22;;;;;;;0.67;0.40;;;10.70;1.00;;;;;;5061844;28;20386;-84
2023/11/04 12:24:47;;;;;;;1.10;0.40;;;11.00;1.00;;;;;;5044752;28;20416;-82
2023/11/04 12:27:13;;;;;;;0.50;0.40;;;10.50;1.00;;;;;;5033569;28;20419;-84
2023/11/04 12:29:40;;;;;;;1.15;0.40;;;11.00;1.00;;;;;;5042887;28;20554;-83
2023/11/04 12:32:06;;;;;;;0.50;0.40;;;10.70;1.00;;;;;;5041606;28;20418;-83
2023/11/04 12:34:32;;;;;;;0.90;0.50;;;11.30;1.00;;;;;;5037991;28;20414;-82
2023/11/04 12:36:58;;;;;;;0.60;0.40;;;12.20;1.00;;;;;;5031787;28;20475;-82
2023/11/04 12:39:25;;;;;;;0.60;0.30;;;10.60;1.00;;;;;;5033785;28;20413;-83
2023/11/04 12:41:50;;;;;;;0.68;0.30;;;10.90;1.00;;;;;;5037149;28;20449;-81
2023/11/04 12:44:16;;;;;;;0.50;0.23;;;11.80;1.00;;;;;;5053684;28;20387;-81
2023/11/04 12:46:41;;;;;;;0.60;0.40;;;10.70;1.00;;;;;;5053860;28;20421;-83
2023/11/04 12:49:08;;;;;;;0.77;0.30;;;10.60;1.00;;;;;;5064774;28;20400;-83
2023/11/04 12:51:34;;;;;;;0.40;0.30;;;11.10;1.00;;;;;;5040967;28;20403;-84
2023/11/04 12:53:59;;;;;;;0.60;0.30;;;11.00;1.00;;;;;;5041441;28;20398;-83
2023/11/04 12:56:25;;;;;;;0.50;0.40;;;11.50;1.00;;;;;;5058095;28;20402;-82
2023/11/04 12:58:53;;;;;;;0.90;0.40;;;11.30;1.00;;;;;;5041264;28;20402;-82
2023/11/04 13:01:18;;;;;;;0.85;0.30;;;11.30;1.00;;;;;;5039345;28;20399;-83
2023/11/04 13:03:44;;;;;;;0.40;0.30;;;11.50;1.00;;;;;;5030489;28;20402;-82
2023/11/04 13:06:09;;;;;;;0.50;0.40;;;11.30;1.00;;;;;;5039229;28;20414;-83
2023/11/04 13:08:35;;;;;;;0.40;0.30;;;11.30;1.00;;;;;;5038728;28;20391;-82
2023/11/04 13:11:01;;;;;;;0.60;0.30;;;11.60;1.00;;;;;;5036646;28;20406;-82